Tasman Sea — WDB5559 — position and weather

sailwx.info

Track history (hours):
 
Tides and Currents Weather Stations Pressure Air Temp Water Temp Dewpoint Dewpoint Depression Visibility Wind Speed Wind Dir Waves Ship Positions

Tasman Sea

Owner: Kirby Offshore Marine, LLC, Staten Island, NY. More information available from US FCC via Universal Licensing System and Coast Guard Vessel Documentation Center.

Last reported at 2016-Dec-04 13:29 UTC. Time now 2016-Dec-05 10:37 UTC.
Position N 40°27' W 073°45'.

Length 151 m; draft 5.3 m.

Type: . MMSI: 366910960.

Date/timePositionNaut miles runAvg speedWind from/ knotsBaromVisibWave heightAir tempDewpointWater temp
2016-Dec-04 13:29N 40°27' W 073°45'12 6.1
2016-Dec-04 11:32N 40°29' W 074°00'12 4.9
2016-Dec-04 09:08N 40°33' W 074°15'0 0.1
2016-Dec-04 08:32N 40°33' W 074°15'3 0.8
2016-Dec-04 04:32N 40°35' W 074°12'4 0.9
2016-Dec-04 00:12N 40°38' W 074°10'2 3.1
2016-Dec-03 23:33N 40°38' W 074°12'5 5.1
2016-Dec-03 22:33N 40°33' W 074°15'0 0.1
2016-Dec-03 16:20N 40°33' W 074°15'0 0.4
2016-Dec-03 15:28N 40°33' W 074°15'2 1.8
2016-Dec-03 14:23N 40°34' W 074°13'5 5.9
2016-Dec-03 13:33N 40°39' W 074°11'7 6.8
2016-Dec-03 12:33N 40°39' W 074°03'0 0.0
2016-Dec-03 11:32N 40°39' W 074°03'0 0.0
2016-Dec-03 10:32N 40°39' W 074°03'0 0.0
2016-Dec-03 09:32N 40°39' W 074°03'0 0.0
2016-Dec-03 08:32N 40°39' W 074°03'0 0.0
2016-Dec-03 07:32N 40°39' W 074°03'0 0.1
2016-Dec-03 06:32N 40°39' W 074°03'0 0.0
2016-Dec-03 05:32N 40°40' W 074°03'0 0.0
2016-Dec-03 04:32N 40°40' W 074°02'0 0.0
2016-Dec-03 03:32N 40°40' W 074°02'0 0.0
2016-Dec-03 02:32N 40°40' W 074°02'0 0.0
2016-Dec-03 01:32N 40°40' W 074°03'0 0.0
2016-Dec-03 00:32N 40°40' W 074°02'0 0.0
2016-Dec-02 23:32N 40°40' W 074°03'0 0.2
2016-Dec-02 22:32N 40°39' W 074°03'0 0.0
2016-Dec-02 21:32N 40°39' W 074°03'0 0.0
2016-Dec-02 20:32N 40°39' W 074°03'0 0.0
2016-Dec-02 19:32N 40°39' W 074°03'0 0.1
2016-Dec-02 18:32N 40°40' W 074°03'0 0.0
2016-Dec-02 17:32N 40°40' W 074°03'0 0.0
2016-Dec-02 16:32N 40°40' W 074°02'0 0.0
2016-Dec-02 15:32N 40°40' W 074°03'0 0.0
2016-Dec-02 14:32N 40°40' W 074°03'0 0.0
2016-Dec-02 13:32N 40°40' W 074°03'0 0.0
2016-Dec-02 12:32N 40°40' W 074°03'0 0.1
2016-Dec-02 11:32N 40°40' W 074°03'0 0.2
2016-Dec-02 10:32N 40°39' W 074°03'0 0.0
2016-Dec-02 09:32N 40°39' W 074°03'0 0.0
2016-Dec-02 08:32N 40°39' W 074°03'0 0.0
2016-Dec-02 07:29N 40°39' W 074°03'0 0.1
2016-Dec-02 06:32N 40°39' W 074°03'0 0.0
2016-Dec-02 05:33N 40°39' W 074°03'5 4.5
2016-Dec-02 04:33N 40°43' W 073°58'7 6.1
2016-Dec-02 03:26N 40°48' W 073°52'6 6.5
2016-Dec-02 02:33N 40°51' W 073°46'7 5.4
2016-Dec-02 01:16N 40°55' W 073°39'168 7.0
2016-Dec-01 01:10N 42°14' W 070°21'6 9.0
2016-Dec-01 00:33N 42°19' W 070°18'9 9.1
2016-Nov-30 23:33N 42°27' W 070°13'9 8.9
2016-Nov-30 22:33N 42°35' W 070°08'9 8.8
2016-Nov-30 21:33N 42°43' W 070°02'  
2016-Nov-26 18:32N 42°60' W 070°20'8 8.0
2016-Nov-26 17:32N 42°52' W 070°24'8 7.8
2016-Nov-26 16:33N 42°45' W 070°27'8 7.7
2016-Nov-26 15:33N 42°37' W 070°30'8 7.7
2016-Nov-26 14:33N 42°32' W 070°38'8 7.9
2016-Nov-26 13:34N 42°27' W 070°47'8 7.7
2016-Nov-26 12:34N 42°22' W 070°55'6 5.6
2016-Nov-26 11:34N 42°22' W 071°02'3 2.5
2016-Nov-26 10:34N 42°24' W 071°01'0 0.0
2016-Nov-25 19:33N 42°24' W 071°01'2 1.5
2016-Nov-25 18:33N 42°23' W 071°03'2 1.7
2016-Nov-25 17:33N 42°21' W 071°02'0 0.0
2016-Nov-25 16:31N 42°21' W 071°02'0 0.0
2016-Nov-25 15:32N 42°21' W 071°02'0 0.0
2016-Nov-25 14:31N 42°21' W 071°02'0 0.0
2016-Nov-25 13:33N 42°21' W 071°02'3 3.4
2016-Nov-25 12:33N 42°20' W 070°58'6 6.1
2016-Nov-25 11:33N 42°22' W 070°50'7 7.4
2016-Nov-25 10:33N 42°17' W 070°42'8 7.3
2016-Nov-25 09:31N 42°11' W 070°37'  
Track history (hours):
 
Tides and Currents Weather Stations Pressure Air Temp Water Temp Dewpoint Dewpoint Depression Visibility Wind Speed Wind Dir Waves Ship Positions

Tasman Sea

Owner: Kirby Offshore Marine, LLC, Staten Island, NY. More information available from US FCC via Universal Licensing System and Coast Guard Vessel Documentation Center.

Last reported at 2016-Dec-04 13:29 UTC. Time now 2016-Dec-05 10:37 UTC.
Position N 40°27' W 073°45'.

Length 151 m; draft 5.3 m.

Type: . MMSI: 366910960.

Date/timePositionNaut miles runAvg speedWind from/ knotsBaromVisibWave heightAir tempDewpointWater temp
2016-Dec-04 13:29N 40°27' W 073°45'12 6.1
2016-Dec-04 11:32N 40°29' W 074°00'12 4.9
2016-Dec-04 09:08N 40°33' W 074°15'0 0.1
2016-Dec-04 08:32N 40°33' W 074°15'3 0.8
2016-Dec-04 04:32N 40°35' W 074°12'4 0.9
2016-Dec-04 00:12N 40°38' W 074°10'2 3.1
2016-Dec-03 23:33N 40°38' W 074°12'5 5.1
2016-Dec-03 22:33N 40°33' W 074°15'0 0.1
2016-Dec-03 16:20N 40°33' W 074°15'0 0.4
2016-Dec-03 15:28N 40°33' W 074°15'2 1.8
2016-Dec-03 14:23N 40°34' W 074°13'5 5.9
2016-Dec-03 13:33N 40°39' W 074°11'7 6.8
2016-Dec-03 12:33N 40°39' W 074°03'0 0.0
2016-Dec-03 11:32N 40°39' W 074°03'0 0.0
2016-Dec-03 10:32N 40°39' W 074°03'0 0.0
2016-Dec-03 09:32N 40°39' W 074°03'0 0.0
2016-Dec-03 08:32N 40°39' W 074°03'0 0.0
2016-Dec-03 07:32N 40°39' W 074°03'0 0.1
2016-Dec-03 06:32N 40°39' W 074°03'0 0.0
2016-Dec-03 05:32N 40°40' W 074°03'0 0.0
2016-Dec-03 04:32N 40°40' W 074°02'0 0.0
2016-Dec-03 03:32N 40°40' W 074°02'0 0.0
2016-Dec-03 02:32N 40°40' W 074°02'0 0.0
2016-Dec-03 01:32N 40°40' W 074°03'0 0.0
2016-Dec-03 00:32N 40°40' W 074°02'0 0.0
2016-Dec-02 23:32N 40°40' W 074°03'0 0.2
2016-Dec-02 22:32N 40°39' W 074°03'0 0.0
2016-Dec-02 21:32N 40°39' W 074°03'0 0.0
2016-Dec-02 20:32N 40°39' W 074°03'0 0.0
2016-Dec-02 19:32N 40°39' W 074°03'0 0.1
2016-Dec-02 18:32N 40°40' W 074°03'0 0.0
2016-Dec-02 17:32N 40°40' W 074°03'0 0.0
2016-Dec-02 16:32N 40°40' W 074°02'0 0.0
2016-Dec-02 15:32N 40°40' W 074°03'0 0.0
2016-Dec-02 14:32N 40°40' W 074°03'0 0.0
2016-Dec-02 13:32N 40°40' W 074°03'0 0.0
2016-Dec-02 12:32N 40°40' W 074°03'0 0.1
2016-Dec-02 11:32N 40°40' W 074°03'0 0.2
2016-Dec-02 10:32N 40°39' W 074°03'0 0.0
2016-Dec-02 09:32N 40°39' W 074°03'0 0.0
2016-Dec-02 08:32N 40°39' W 074°03'0 0.0
2016-Dec-02 07:29N 40°39' W 074°03'0 0.1
2016-Dec-02 06:32N 40°39' W 074°03'0 0.0
2016-Dec-02 05:33N 40°39' W 074°03'5 4.5
2016-Dec-02 04:33N 40°43' W 073°58'7 6.1
2016-Dec-02 03:26N 40°48' W 073°52'6 6.5
2016-Dec-02 02:33N 40°51' W 073°46'7 5.4
2016-Dec-02 01:16N 40°55' W 073°39'168 7.0
2016-Dec-01 01:10N 42°14' W 070°21'6 9.0
2016-Dec-01 00:33N 42°19' W 070°18'9 9.1
2016-Nov-30 23:33N 42°27' W 070°13'9 8.9
2016-Nov-30 22:33N 42°35' W 070°08'9 8.8
2016-Nov-30 21:33N 42°43' W 070°02'  
2016-Nov-26 18:32N 42°60' W 070°20'8 8.0
2016-Nov-26 17:32N 42°52' W 070°24'8 7.8
2016-Nov-26 16:33N 42°45' W 070°27'8 7.7
2016-Nov-26 15:33N 42°37' W 070°30'8 7.7
2016-Nov-26 14:33N 42°32' W 070°38'8 7.9
2016-Nov-26 13:34N 42°27' W 070°47'8 7.7
2016-Nov-26 12:34N 42°22' W 070°55'6 5.6
2016-Nov-26 11:34N 42°22' W 071°02'3 2.5
2016-Nov-26 10:34N 42°24' W 071°01'0 0.0
2016-Nov-25 19:33N 42°24' W 071°01'2 1.5
2016-Nov-25 18:33N 42°23' W 071°03'2 1.7
2016-Nov-25 17:33N 42°21' W 071°02'0 0.0
2016-Nov-25 16:31N 42°21' W 071°02'0 0.0
2016-Nov-25 15:32N 42°21' W 071°02'0 0.0
2016-Nov-25 14:31N 42°21' W 071°02'0 0.0
2016-Nov-25 13:33N 42°21' W 071°02'3 3.4
2016-Nov-25 12:33N 42°20' W 070°58'6 6.1
2016-Nov-25 11:33N 42°22' W 070°50'7 7.4
2016-Nov-25 10:33N 42°17' W 070°42'8 7.3
2016-Nov-25 09:31N 42°11' W 070°37'  

Dump ship's entire track history